Time;durP1;ratioP1;P1;durP2;ratioP2;P2;SDS_P1;SDS_P2;PMS_P1;PMS_P2;Temp;Humidity;BMP_temperature;BMP_pressure;BME280_temperature;BME280_humidity;BME280_pressure;Samples;Min_cycle;Max_cycle;Signal;HPM_P1;HPM_P2
2022/01/20 00:02:28;;;;;;;22.15;3.70;;;;;;;-146.48;100.00;42320.97;5306330;28;19966;-69
2022/01/20 00:05:43;;;;;;;26.83;3.25;;;;;;;-146.48;100.00;42352.88;5304980;28;20058;-68
2022/01/20 00:08:12;;;;;;;27.20;2.33;;;;;;;-146.48;100.00;42366.84;5303024;28;20464;-69
2022/01/20 00:27:53;;;;;;;30.67;3.30;;;;;;;-146.48;100.00;42793.75;5305904;28;20032;-68
2022/01/20 00:33:22;;;;;;;29.45;3.17;;;;;;;-146.48;100.00;42875.53;5305169;28;20028;-68
2022/01/20 00:38:40;;;;;;;28.40;2.78;;;;;;;-146.48;100.00;42195.31;5304369;28;20032;-69
2022/01/20 00:41:15;;;;;;;33.45;2.45;;;;;;;-146.48;100.00;42167.38;5305577;28;20028;-69
2022/01/20 00:43:46;;;;;;;25.17;3.45;;;;;;;-146.48;100.00;42271.09;5305288;28;20024;-68
2022/01/20 00:46:17;;;;;;;22.48;2.63;;;;;;;-146.48;100.00;42185.34;5304807;28;20035;-68
2022/01/20 00:48:48;;;;;;;28.65;2.63;;;;;;;-146.48;100.00;42311.00;5304806;28;20032;-69
2022/01/20 00:51:23;;;;;;;22.10;3.10;;;;;;;-146.48;100.00;42318.97;5305419;28;20040;-69
2022/01/20 00:53:54;;;;;;;28.10;3.17;;;;;;;-146.48;100.00;42338.91;5304326;28;20024;-68
2022/01/20 00:56:25;;;;;;;26.25;2.00;;;;;;;-146.48;100.00;42370.84;5305212;28;20036;-67
2022/01/20 00:58:57;;;;;;;25.50;1.83;;;;;;;-146.48;100.00;42320.97;5304779;28;20434;-68
2022/01/20 01:01:28;;;;;;;23.90;2.33;;;;;;;-146.48;100.00;42281.06;5304378;28;20365;-67
2022/01/20 01:03:59;;;;;;;20.02;2.75;;;;;;;-146.48;100.00;42311.00;5304577;28;20467;-67
2022/01/20 01:06:44;;;;;;;31.38;3.17;;;;;;;-146.48;100.00;42231.22;5304124;28;20518;-67
2022/01/20 01:09:15;;;;;;;15.90;2.13;;;;;;;-146.48;100.00;42149.44;5303807;28;20032;-67
2022/01/20 01:11:48;;;;;;;24.08;2.15;;;;;;;-146.48;100.00;41995.84;5304428;28;20153;-68
2022/01/20 01:14:21;;;;;;;19.75;2.03;;;;;;;-146.48;100.00;41973.91;5304535;28;20099;-68
2022/01/20 01:24:53;;;;;;;18.95;1.55;;;;;;;-146.48;100.00;41977.91;5304489;28;20032;-67
2022/01/20 01:27:26;;;;;;;21.55;1.70;;;;;;;-146.48;100.00;41814.34;5304843;28;20046;-68
2022/01/20 01:33:04;;;;;;;14.32;1.10;;;;;;;-146.48;100.00;41874.19;5291758;28;20055;-68
2022/01/20 01:35:39;;;;;;;20.77;1.67;;;;;;;-146.48;100.00;41880.16;5303843;28;20028;-68
2022/01/20 01:40:42;;;;;;;15.10;2.00;;;;;;;-146.48;100.00;41878.19;5303763;28;20038;-68
2022/01/20 01:43:19;;;;;;;18.48;1.10;;;;;;;-146.48;100.00;41884.16;5303901;28;20085;-68
2022/01/20 01:45:50;;;;;;;18.38;1.58;;;;;;;-146.48;100.00;41920.06;5303661;28;20102;-69
2022/01/20 01:48:22;;;;;;;23.30;3.28;;;;;;;-146.48;100.00;41890.16;5304438;28;20586;-68
2022/01/20 01:50:54;;;;;;;16.42;1.30;;;;;;;-146.48;100.00;41882.16;5303218;28;20475;-68
2022/01/20 01:53:27;;;;;;;17.23;1.15;;;;;;;-146.48;100.00;41882.16;5304573;28;20589;-68
2022/01/20 01:55:58;;;;;;;25.60;1.60;;;;;;;-146.48;100.00;41894.13;5303946;28;20509;-69
2022/01/20 01:58:30;;;;;;;24.65;2.15;;;;;;;-146.48;100.00;41746.53;5304829;28;20019;-68
2022/01/20 02:01:02;;;;;;;19.33;2.03;;;;;;;-146.48;100.00;41688.72;5304273;28;20032;-68
2022/01/20 02:03:42;;;;;;;25.33;2.22;;;;;;;-146.48;100.00;41565.06;5303128;28;20035;-68
2022/01/20 02:20:14;;;;;;;14.25;1.27;;;;;;;-146.48;100.00;41395.56;5303363;28;20040;-69
2022/01/20 02:22:45;;;;;;;12.50;0.90;;;;;;;-146.48;100.00;41385.59;5303581;28;20042;-68
2022/01/20 02:25:26;;;;;;;15.45;1.00;;;;;;;-146.48;100.00;41433.44;5302718;28;20036;-68
2022/01/20 02:28:00;;;;;;;10.98;0.80;;;;;;;-146.48;100.00;41379.59;5302983;28;20028;-68
2022/01/20 02:30:32;;;;;;;9.93;0.90;;;;;;;-146.48;100.00;41361.66;5303497;28;20395;-68
2022/01/20 02:33:06;;;;;;;15.00;1.88;;;;;;;-146.48;100.00;41503.25;5301869;28;20380;-68
2022/01/20 02:35:47;;;;;;;13.80;0.82;;;;;;;-146.48;100.00;41565.06;5303265;28;20020;-68
2022/01/20 02:38:43;;;;;;;11.93;0.70;;;;;;;-146.48;100.00;41467.34;5302262;28;20043;-68
2022/01/20 02:46:54;;;;;;;8.80;0.93;;;;;;;-146.48;100.00;41547.13;5302381;28;20059;-68
2022/01/20 02:49:25;;;;;;;9.18;0.80;;;;;;;-146.48;100.00;41511.22;5302766;28;20043;-68
2022/01/20 02:51:56;;;;;;;7.93;0.90;;;;;;;-146.48;100.00;41581.00;5301557;28;20028;-69
2022/01/20 02:54:28;;;;;;;10.25;0.40;;;;;;;-146.48;100.00;41461.34;5302745;28;20030;-68
2022/01/20 02:57:00;;;;;;;11.15;1.83;;;;;;;-146.48;100.00;41413.50;5302432;28;20039;-69
2022/01/20 02:59:34;;;;;;;12.52;0.90;;;;;;;-146.48;100.00;41433.44;5302196;28;20032;-68
2022/01/20 03:02:08;;;;;;;9.55;0.70;;;;;;;-146.48;100.00;41495.25;5302137;28;20050;-68
2022/01/20 03:04:40;;;;;;;14.23;0.90;;;;;;;-146.48;100.00;41497.25;5302670;28;20039;-68
2022/01/20 03:07:11;;;;;;;18.42;0.90;;;;;;;-146.48;100.00;41557.09;5301992;28;20107;-68
2022/01/20 03:09:42;;;;;;;13.70;1.52;;;;;;;-146.48;100.00;41628.88;5302578;28;20043;-68
2022/01/20 03:12:15;;;;;;;13.30;0.93;;;;;;;-146.48;100.00;41656.81;5302323;28;20050;-68
2022/01/20 03:14:46;;;;;;;16.80;1.10;;;;;;;-146.48;100.00;41602.94;5301626;28;20028;-68
2022/01/20 03:17:17;;;;;;;11.10;1.08;;;;;;;-146.48;100.00;41539.13;5302214;28;20024;-68
2022/01/20 03:19:49;;;;;;;14.35;1.00;;;;;;;-146.48;100.00;41622.91;5302412;28;20467;-68
2022/01/20 03:22:20;;;;;;;10.40;0.68;;;;;;;-146.48;100.00;41626.88;5301617;28;20058;-68
2022/01/20 03:24:51;;;;;;;12.02;0.80;;;;;;;-146.48;100.00;41720.63;5302280;28;20085;-68
2022/01/20 03:27:23;;;;;;;14.30;0.90;;;;;;;-146.48;100.00;41736.56;5301716;28;20035;-68
2022/01/20 03:29:54;;;;;;;12.30;0.82;;;;;;;-146.48;100.00;41688.72;5302181;28;20020;-68
2022/01/20 03:32:25;;;;;;;18.70;1.27;;;;;;;-146.48;100.00;41796.41;5301511;28;20024;-68
2022/01/20 03:34:56;;;;;;;16.05;1.77;;;;;;;-146.48;100.00;41856.25;5301048;28;20021;-67
2022/01/20 03:37:28;;;;;;;19.63;0.80;;;;;;;-146.48;100.00;41810.38;5302442;28;20039;-68
2022/01/20 03:39:59;;;;;;;15.18;1.45;;;;;;;-146.48;100.00;41820.34;5302039;28;20537;-68
2022/01/20 03:42:30;;;;;;;19.63;1.20;;;;;;;-146.48;100.00;41872.19;5301929;28;20038;-67
2022/01/20 03:45:04;;;;;;;12.00;1.00;;;;;;;-146.48;100.00;41822.34;5301849;28;20028;-68
2022/01/20 03:47:35;;;;;;;16.52;1.10;;;;;;;-146.48;100.00;41806.38;5302334;28;20110;-68
2022/01/20 03:50:10;;;;;;;15.98;0.90;;;;;;;-146.48;100.00;41758.50;5300900;28;20111;-67
2022/01/20 03:52:41;;;;;;;17.33;1.20;;;;;;;-146.48;100.00;41784.44;5302113;28;20516;-68
2022/01/20 03:55:13;;;;;;;14.10;1.42;;;;;;;-146.48;100.00;41838.28;5301220;28;20036;-68
2022/01/20 03:57:45;;;;;;;17.42;1.38;;;;;;;-146.48;100.00;41780.44;5301940;28;20028;-68
2022/01/20 04:00:16;;;;;;;15.15;1.15;;;;;;;-146.48;100.00;41848.25;5301766;28;20489;-68
2022/01/20 04:02:47;;;;;;;10.60;0.75;;;;;;;-146.48;100.00;41828.31;5301331;28;20452;-68
2022/01/20 04:05:18;;;;;;;15.98;1.50;;;;;;;-146.48;100.00;41840.28;5301810;28;20049;-67
2022/01/20 04:07:50;;;;;;;21.38;1.45;;;;;;;-146.48;100.00;41832.31;5301793;28;20036;-68
2022/01/20 04:10:21;;;;;;;14.10;0.88;;;;;;;-146.48;100.00;41790.41;5301146;28;20039;-68
2022/01/20 04:12:52;;;;;;;14.02;1.08;;;;;;;-146.48;100.00;41770.47;5301733;28;20028;-68
2022/01/20 04:15:28;;;;;;;16.58;0.90;;;;;;;-146.48;100.00;41790.41;5301680;28;20040;-68
2022/01/20 04:18:02;;;;;;;17.95;0.95;;;;;;;-146.48;100.00;41774.47;5300458;28;20016;-69
2022/01/20 04:20:33;;;;;;;12.95;1.40;;;;;;;-146.48;100.00;41844.28;5302076;28;20058;-68
2022/01/20 04:23:04;;;;;;;10.07;1.00;;;;;;;-146.48;100.00;41714.63;5301454;28;20095;-68
2022/01/20 04:25:36;;;;;;;15.18;1.00;;;;;;;-146.48;100.00;41746.53;5301294;28;20012;-68
2022/01/20 04:28:07;;;;;;;15.18;1.27;;;;;;;-146.48;100.00;41688.72;5301799;28;20054;-68
2022/01/20 04:30:39;;;;;;;17.77;1.60;;;;;;;-146.48;100.00;41624.88;5301068;28;20147;-68
2022/01/20 04:33:10;;;;;;;12.60;1.00;;;;;;;-146.48;100.00;41529.16;5301591;28;20028;-68
2022/01/20 04:35:41;;;;;;;14.65;0.90;;;;;;;-146.48;100.00;41415.50;5301660;28;20028;-68
2022/01/20 04:38:13;;;;;;;11.93;1.02;;;;;;;-146.48;100.00;41369.63;5300765;28;20031;-68
2022/01/20 04:40:44;;;;;;;22.30;1.17;;;;;;;-146.48;100.00;41140.31;5301627;28;20035;-68
2022/01/20 04:43:15;;;;;;;16.83;0.98;;;;;;;-146.48;100.00;41222.06;5303513;28;20081;-68
2022/01/20 04:45:55;;;;;;;16.35;1.02;;;;;;;-146.48;100.00;41333.72;5304491;28;20031;-68
2022/01/20 04:59:57;;;;;;;18.75;1.50;;;;;;;-146.48;100.00;41543.13;5291238;28;20077;-68
2022/01/20 05:02:29;;;;;;;18.30;1.83;;;;;;;-146.48;100.00;41537.16;5305755;28;20024;-68
2022/01/20 05:05:01;;;;;;;11.30;0.82;;;;;;;-146.48;100.00;41559.06;5304676;28;20016;-68
2022/01/20 05:07:32;;;;;;;14.00;1.25;;;;;;;-146.48;100.00;41511.22;5304566;28;20024;-68
2022/01/20 05:10:06;;;;;;;17.40;1.17;;;;;;;-146.48;100.00;41602.94;5304573;28;20024;-68
2022/01/20 05:13:05;;;;;;;11.65;0.65;;;;;;;-146.48;100.00;41591.00;5304357;28;20515;-68
2022/01/20 05:15:38;;;;;;;17.13;1.40;;;;;;;-146.48;100.00;41618.91;5305013;28;20433;-68
2022/01/20 05:18:10;;;;;;;15.43;1.15;;;;;;;-146.48;100.00;41596.97;5304208;28;20028;-68
2022/01/20 05:20:41;;;;;;;18.88;1.00;;;;;;;-146.48;100.00;41610.94;5304038;28;20482;-68
2022/01/20 05:23:12;;;;;;;21.35;1.10;;;;;;;-146.48;100.00;41481.31;5304263;28;20016;-68
2022/01/20 05:25:44;;;;;;;14.45;1.50;;;;;;;-146.48;100.00;41335.72;5304841;28;20107;-68
2022/01/20 05:28:15;;;;;;;18.63;1.48;;;;;;;-146.48;100.00;41333.72;5303541;28;20024;-69
2022/01/20 05:30:47;;;;;;;17.95;0.80;;;;;;;-146.48;100.00;41319.78;5304804;28;20031;-68
2022/01/20 05:33:18;;;;;;;20.50;1.10;;;;;;;-146.48;100.00;41387.56;5303902;28;20021;-67
2022/01/20 05:35:49;;;;;;;18.10;1.73;;;;;;;-146.48;100.00;41325.75;5304022;28;20020;-67
2022/01/20 05:38:21;;;;;;;20.17;2.10;;;;;;;-146.48;100.00;41255.97;5304034;28;20024;-67
2022/01/20 05:40:52;;;;;;;14.27;1.10;;;;;;;-146.48;100.00;41383.59;5303782;28;20081;-68
2022/01/20 05:43:23;;;;;;;18.85;1.10;;;;;;;-146.48;100.00;41375.59;5304148;28;20031;-68
2022/01/20 05:45:55;;;;;;;12.73;0.70;;;;;;;-146.48;100.00;41253.97;5304196;28;20470;-68
2022/01/20 05:48:34;;;;;;;8.07;0.45;;;;;;;-146.48;100.00;41313.78;5303177;28;20024;-67
2022/01/20 05:51:06;;;;;;;7.85;0.65;;;;;;;-146.48;100.00;41257.94;5303847;28;20055;-68
2022/01/20 05:53:37;;;;;;;13.40;0.90;;;;;;;-146.48;100.00;41136.31;5304139;28;20048;-67
2022/01/20 05:56:08;;;;;;;10.43;0.93;;;;;;;-146.48;100.00;41024.66;5302386;28;20023;-68
2022/01/20 05:58:40;;;;;;;9.77;0.50;;;;;;;-146.48;100.00;41064.53;5304109;28;20028;-68
2022/01/20 06:01:11;;;;;;;9.50;0.60;;;;;;;-146.48;100.00;41084.47;5303342;28;20023;-67
2022/01/20 06:03:42;;;;;;;10.23;0.77;;;;;;;-146.48;100.00;40970.81;5303336;28;20082;-67
2022/01/20 06:06:13;;;;;;;10.20;1.73;;;;;;;-146.48;100.00;40966.81;5303196;28;20055;-68
2022/01/20 06:08:45;;;;;;;14.63;1.13;;;;;;;-146.48;100.00;40976.78;5304054;28;20024;-68
2022/01/20 06:11:16;;;;;;;9.35;0.57;;;;;;;-146.48;100.00;40980.78;5302519;28;20032;-68
2022/01/20 06:13:48;;;;;;;11.50;0.82;;;;;;;-146.48;100.00;41086.47;5303688;28;20088;-68
2022/01/20 06:16:19;;;;;;;15.70;1.60;;;;;;;-146.48;100.00;41056.56;5302473;28;20012;-68
2022/01/20 06:18:50;;;;;;;10.32;0.70;;;;;;;-146.48;100.00;40944.88;5303713;28;20089;-67
2022/01/20 06:21:22;;;;;;;8.98;0.65;;;;;;;-146.48;100.00;41108.41;5302972;28;20452;-67
2022/01/20 06:23:54;;;;;;;13.40;0.60;;;;;;;-146.48;100.00;41084.47;5302516;28;20463;-68
2022/01/20 06:26:25;;;;;;;12.57;0.73;;;;;;;-146.48;100.00;41002.72;5303547;28;20053;-68
2022/01/20 06:28:56;;;;;;;14.23;1.70;;;;;;;-146.48;100.00;41096.44;5303152;28;20100;-68
2022/01/20 06:31:28;;;;;;;14.25;1.00;;;;;;;-146.48;100.00;41106.41;5302753;28;20016;-68
2022/01/20 06:33:59;;;;;;;15.43;0.88;;;;;;;-146.48;100.00;41004.72;5302630;28;20024;-68
2022/01/20 06:36:30;;;;;;;12.23;1.35;;;;;;;-146.48;100.00;40990.75;5303128;28;20065;-69
2022/01/20 06:39:02;;;;;;;16.58;2.65;;;;;;;-146.48;100.00;40962.84;5302063;28;20053;-69
2022/01/20 06:41:37;;;;;;;14.98;0.70;;;;;;;-146.48;100.00;41014.69;5303442;28;20016;-69
2022/01/20 06:44:09;;;;;;;16.65;0.82;;;;;;;-146.48;100.00;40990.75;5299895;28;20032;-69
2022/01/20 06:46:40;;;;;;;14.90;1.63;;;;;;;-146.48;100.00;41008.69;5301948;28;20081;-69
2022/01/20 06:49:11;;;;;;;16.33;1.33;;;;;;;-146.48;100.00;41002.72;5301137;28;20040;-66
2022/01/20 06:51:43;;;;;;;18.73;1.15;;;;;;;-146.48;100.00;40918.97;5301427;28;20372;-67
2022/01/20 06:54:15;;;;;;;12.45;1.73;;;;;;;-146.48;100.00;41022.66;5301304;28;20110;-68
2022/01/20 06:56:47;;;;;;;14.60;1.45;;;;;;;-146.48;100.00;41048.56;5301233;28;20112;-68
2022/01/20 06:59:19;;;;;;;18.30;1.40;;;;;;;-146.48;100.00;41046.59;5300267;28;20107;-67
2022/01/20 07:01:50;;;;;;;16.85;0.90;;;;;;;-146.48;100.00;41056.56;5301637;28;20091;-68
2022/01/20 07:04:21;;;;;;;19.05;1.10;;;;;;;-146.48;100.00;41016.66;5301274;28;20024;-67
2022/01/20 07:06:53;;;;;;;17.52;2.47;;;;;;;-146.48;100.00;40936.91;5300087;28;20083;-68
2022/01/20 07:09:25;;;;;;;18.58;2.53;;;;;;;-146.48;100.00;40907.00;5300946;28;20463;-68
2022/01/20 07:11:56;;;;;;;25.73;4.68;;;;;;;-146.48;100.00;40962.84;5300800;28;20023;-68
2022/01/20 07:14:29;;;;;;;19.25;2.92;;;;;;;-146.48;100.00;41044.59;5300785;28;20043;-68
2022/01/20 07:17:00;;;;;;;18.88;1.63;;;;;;;-146.48;100.00;40976.78;5301003;28;20024;-68
2022/01/20 07:19:32;;;;;;;20.65;1.60;;;;;;;-146.48;100.00;40982.78;5300806;28;20020;-68
2022/01/20 07:22:03;;;;;;;18.40;1.27;;;;;;;-146.48;100.00;40994.72;5300534;28;20054;-68
2022/01/20 07:24:35;;;;;;;25.15;1.45;;;;;;;-146.48;100.00;40966.81;5301285;28;20032;-69
2022/01/20 07:27:06;;;;;;;12.55;1.40;;;;;;;-146.48;100.00;40974.78;5300198;28;20375;-68
2022/01/20 07:29:37;;;;;;;17.75;1.52;;;;;;;-146.48;100.00;41004.72;5301658;28;20078;-69
2022/01/20 07:32:09;;;;;;;19.80;2.47;;;;;;;-146.48;100.00;40984.75;5300699;28;20337;-67
2022/01/20 07:34:40;;;;;;;17.40;2.03;;;;;;;-146.48;100.00;40980.78;5300399;28;20105;-67
2022/01/20 07:37:12;;;;;;;18.60;1.70;;;;;;;-146.48;100.00;40891.06;5300174;28;20036;-68
2022/01/20 07:39:43;;;;;;;21.50;1.85;;;;;;;-146.48;100.00;40883.06;5301419;28;20078;-68
2022/01/20 07:42:15;;;;;;;16.38;1.27;;;;;;;-146.48;100.00;40817.28;5295757;28;20099;-68
2022/01/20 07:44:46;;;;;;;17.35;1.83;;;;;;;-146.48;100.00;40805.31;5301062;28;20028;-68
2022/01/20 07:47:17;;;;;;;17.95;1.52;;;;;;;-146.48;100.00;40737.53;5299822;28;20093;-68
2022/01/20 07:49:48;;;;;;;13.75;1.52;;;;;;;-146.48;100.00;40729.53;5300505;28;20024;-68
2022/01/20 07:52:20;;;;;;;18.77;2.38;;;;;;;-146.48;100.00;40657.75;5300203;28;20128;-68
2022/01/20 07:54:51;;;;;;;20.55;3.22;;;;;;;-146.48;100.00;40625.88;5299655;28;20027;-68
2022/01/20 07:57:22;;;;;;;17.08;1.45;;;;;;;-146.48;100.00;40478.31;5300160;28;20463;-68
2022/01/20 07:59:54;;;;;;;17.52;1.45;;;;;;;-146.48;100.00;40440.44;5300689;28;20027;-68
2022/01/20 08:02:25;;;;;;;21.45;2.30;;;;;;;-146.48;100.00;40330.78;5300031;28;20029;-68
2022/01/20 08:04:57;;;;;;;19.48;2.65;;;;;;;-146.48;100.00;40326.81;5300280;28;20024;-68
2022/01/20 08:07:28;;;;;;;18.20;1.55;;;;;;;-146.48;100.00;40400.56;5300382;28;20031;-67
2022/01/20 08:10:00;;;;;;;17.45;1.75;;;;;;;-146.48;100.00;40384.63;5299713;28;20077;-69
2022/01/20 08:12:31;;;;;;;17.70;1.52;;;;;;;-146.48;100.00;40376.66;5300816;28;20107;-69
2022/01/20 08:15:03;;;;;;;16.20;1.48;;;;;;;-146.48;100.00;40392.59;5300566;28;20036;-67
2022/01/20 08:17:36;;;;;;;21.63;1.70;;;;;;;-146.48;100.00;40532.16;5300958;28;20032;-68
2022/01/20 08:20:09;;;;;;;15.73;1.90;;;;;;;-146.48;100.00;40462.38;5303933;28;20032;-68
2022/01/20 08:22:40;;;;;;;19.33;1.40;;;;;;;-146.48;100.00;40328.78;5303973;28;20103;-68
2022/01/20 08:25:15;;;;;;;20.83;2.15;;;;;;;-146.48;100.00;40292.91;5304157;28;21059;-68
2022/01/20 08:27:47;;;;;;;20.48;1.90;;;;;;;-146.48;100.00;40348.72;5305159;28;20568;-68
2022/01/20 08:30:23;;;;;;;24.50;2.13;;;;;;;-146.48;100.00;40306.88;5303603;28;20027;-69
2022/01/20 08:32:54;;;;;;;20.05;2.17;;;;;;;-146.48;100.00;40175.28;5304309;28;20024;-69
2022/01/20 08:35:27;;;;;;;22.13;2.13;;;;;;;-146.48;100.00;40159.34;5305490;28;20024;-69
2022/01/20 08:38:00;;;;;;;22.70;2.10;;;;;;;-146.48;100.00;40179.28;5304244;28;20494;-69
2022/01/20 08:40:31;;;;;;;16.60;1.40;;;;;;;-146.48;100.00;40085.56;5305575;28;20020;-68
2022/01/20 08:43:03;;;;;;;17.83;1.45;;;;;;;-146.48;100.00;40077.59;5305107;28;20081;-69
2022/01/20 08:45:35;;;;;;;15.75;1.50;;;;;;;-146.48;100.00;39918.13;5304957;28;20042;-69
2022/01/20 08:48:08;;;;;;;14.02;1.00;;;;;;;-146.48;100.00;39878.25;5304852;28;20034;-69
2022/01/20 08:50:42;;;;;;;11.93;1.55;;;;;;;-146.48;100.00;39738.72;5304168;28;20552;-69
2022/01/20 08:53:14;;;;;;;10.95;1.55;;;;;;;-146.48;100.00;39635.06;5304627;28;20023;-68
2022/01/20 08:55:45;;;;;;;14.07;1.42;;;;;;;-146.48;100.00;39515.47;5305433;28;20021;-68
2022/01/20 08:58:17;;;;;;;13.25;1.70;;;;;;;-146.48;100.00;39419.78;5304092;28;20395;-69
2022/01/20 09:00:48;;;;;;;14.70;0.80;;;;;;;-146.48;100.00;39318.13;5305413;28;20012;-67
2022/01/20 09:03:22;;;;;;;10.32;1.63;;;;;;;-146.48;100.00;39228.44;5304644;28;20073;-67
2022/01/20 09:05:55;;;;;;;12.88;1.00;;;;;;;-146.48;100.00;39001.25;5303832;28;20043;-68
2022/01/20 09:08:26;;;;;;;10.75;0.77;;;;;;;-146.48;100.00;38829.84;5304826;28;20028;-68
2022/01/20 09:10:57;;;;;;;15.70;2.13;;;;;;;-146.48;100.00;38690.34;5304189;28;20035;-68
2022/01/20 09:16:19;;;;;;;13.23;0.82;;;;;;;-146.48;100.00;38136.38;5304574;28;20122;-68
2022/01/20 09:18:50;;;;;;;11.20;0.90;;;;;;;-146.48;100.00;37971.00;5304664;28;20107;-68
2022/01/20 09:21:23;;;;;;;10.88;0.88;;;;;;;-146.48;100.00;37953.06;5301553;28;20089;-67
2022/01/20 09:23:55;;;;;;;10.65;0.85;;;;;;;-146.48;100.00;37749.84;5304368;28;20367;-68
2022/01/20 09:26:27;;;;;;;13.70;1.08;;;;;;;-146.48;100.00;37562.56;5296621;28;20020;-67
2022/01/20 09:28:59;;;;;;;8.68;0.77;;;;;;;-146.48;100.00;37574.50;5281597;28;20021;-68
2022/01/20 09:31:36;;;;;;;12.77;1.00;;;;;;;-146.48;100.00;37646.25;5283409;28;20025;-67
2022/01/20 09:34:08;;;;;;;12.90;1.98;;;;;;;-146.48;100.00;37550.59;5282349;28;20124;-68
2022/01/20 09:36:39;;;;;;;7.60;0.70;;;;;;;-146.48;100.00;37480.88;5283641;28;20111;-68
2022/01/20 09:39:12;;;;;;;11.43;1.23;;;;;;;-146.48;100.00;37560.56;5282883;28;20032;-68
2022/01/20 09:41:44;;;;;;;9.13;0.65;;;;;;;-146.48;100.00;37644.25;5282725;28;20038;-68
2022/01/20 09:44:16;;;;;;;8.98;1.05;;;;;;;-146.48;100.00;37698.03;5282815;28;20033;-68
2022/01/20 09:46:47;;;;;;;12.57;0.80;;;;;;;-146.48;100.00;37596.44;5283574;28;20037;-68
2022/01/20 09:49:19;;;;;;;14.15;2.00;;;;;;;-146.48;100.00;37451.00;5281982;28;20036;-68
2022/01/20 09:51:50;;;;;;;8.93;0.93;;;;;;;-146.48;100.00;37357.38;5283540;28;20033;-68
2022/01/20 09:54:21;;;;;;;9.05;1.02;;;;;;;-146.48;100.00;37307.56;5281964;28;20034;-68
2022/01/20 09:56:53;;;;;;;7.30;0.75;;;;;;;-146.48;100.00;37184.03;5282982;28;20028;-68
2022/01/20 09:59:25;;;;;;;12.35;1.08;;;;;;;-146.48;100.00;37028.66;5282942;28;20029;-67
2022/01/20 10:01:58;;;;;;;12.00;0.90;;;;;;;-146.48;100.00;37008.75;5281714;28;20048;-68
2022/01/20 10:04:32;;;;;;;7.22;0.73;;;;;;;-146.48;100.00;36875.28;5282872;28;20074;-68
2022/01/20 10:07:06;;;;;;;9.80;0.80;;;;;;;-146.48;100.00;36664.16;5282004;28;20098;-68
2022/01/20 10:09:45;;;;;;;12.43;0.93;;;;;;;-146.48;100.00;36622.31;5282359;28;20452;-67
2022/01/20 10:12:18;;;;;;;12.43;0.73;;;;;;;-146.48;100.00;36596.44;5282357;28;20033;-68
2022/01/20 10:14:57;;;;;;;10.30;1.20;;;;;;;-146.48;100.00;36506.81;5282611;28;20024;-68
2022/01/20 10:17:30;;;;;;;9.43;0.70;;;;;;;-146.48;100.00;36468.97;5282000;28;20028;-68
2022/01/20 10:20:07;;;;;;;9.95;1.25;;;;;;;-146.48;100.00;36391.28;5282159;28;20460;-68
2022/01/20 10:22:39;;;;;;;8.95;0.65;;;;;;;-146.48;100.00;36140.34;5281909;28;20451;-69
2022/01/20 10:25:14;;;;;;;11.68;0.95;;;;;;;-146.48;100.00;36022.84;5281905;28;20044;-68
2022/01/20 10:27:51;;;;;;;9.52;0.60;;;;;;;-146.48;100.00;35961.09;5282291;28;20035;-68
2022/01/20 10:30:26;;;;;;;13.48;1.55;;;;;;;-146.48;100.00;35855.56;5281289;28;20029;-67
2022/01/20 10:32:59;;;;;;;11.23;1.85;;;;;;;-146.48;100.00;35638.50;5281735;28;20044;-67
2022/01/20 10:35:33;;;;;;;10.77;1.10;;;;;;;-146.48;100.00;35357.75;5280858;28;20516;-67
2022/01/20 10:38:14;;;;;;;14.75;1.10;;;;;;;-146.48;100.00;35256.19;5280282;28;20036;-67
2022/01/20 10:40:54;;;;;;;13.95;0.98;;;;;;;-146.48;100.00;34921.72;5282185;28;20024;-67
2022/01/20 10:43:32;;;;;;;10.95;0.98;;;;;;;-146.48;100.00;34806.25;5281522;28;20035;-68
2022/01/20 10:46:05;;;;;;;12.93;0.98;;;;;;;-146.48;100.00;34523.53;5281441;28;20017;-68
2022/01/20 10:48:38;;;;;;;13.05;0.82;;;;;;;-146.48;100.00;34187.13;5282141;28;20108;-69
2022/01/20 10:51:17;;;;;;;13.23;1.20;;;;;;;-146.48;100.00;33723.34;5280826;28;20017;-68
2022/01/20 10:54:06;;;;;;;12.35;1.00;;;;;;;-146.48;100.00;33180.03;5282024;28;20533;-68
2022/01/20 10:56:57;;;;;;;;;;;;;;;-146.48;100.00;32839.75;5282224;28;20116;-68
2022/01/20 10:59:28;;;;;;;10.30;0.98;;;;;;;-146.48;100.00;32515.41;5281128;28;20244;-68
2022/01/20 11:02:01;;;;;;;9.10;0.90;;;;;;;-146.48;100.00;32364.22;5281445;28;20027;-67
2022/01/20 11:04:34;;;;;;;10.63;0.60;;;;;;;-146.48;100.00;32220.97;5281026;28;20446;-69
2022/01/20 11:07:07;;;;;;;14.95;1.65;;;;;;;-146.48;100.00;32193.09;5281031;28;20048;-69
2022/01/20 11:09:43;;;;;;;14.30;0.90;;;;;;;-146.48;100.00;32002.13;5281561;28;20031;-68
2022/01/20 11:12:16;;;;;;;10.85;0.70;;;;;;;-146.48;100.00;32004.09;5280540;28;20035;-68
2022/01/20 11:14:51;;;;;;;10.68;0.98;;;;;;;-146.48;100.00;31886.72;5281441;28;20035;-69
2022/01/20 11:17:29;;;;;;;17.55;0.85;;;;;;;-146.48;100.00;31681.81;5281034;28;20535;-69
2022/01/20 11:20:13;;;;;;;12.45;1.02;;;;;;;-146.48;100.00;31546.56;5280103;28;20028;-69
2022/01/20 11:22:54;;;;;;;10.55;0.80;;;;;;;-146.48;100.00;31198.47;5281663;28;20380;-68
2022/01/20 11:25:29;;;;;;;12.45;1.00;;;;;;;-146.48;100.00;31134.81;5280519;28;20020;-68
2022/01/20 11:28:10;;;;;;;10.57;1.00;;;;;;;-146.48;100.00;31162.66;5280794;28;20017;-69
2022/01/20 11:30:54;;;;;;;10.98;1.35;;;;;;;-146.48;100.00;31033.38;5282009;28;20108;-68
2022/01/20 11:33:40;;;;;;;14.60;1.30;;;;;;;-146.48;100.00;31055.25;5280463;28;20056;-68
2022/01/20 11:36:27;;;;;;;13.88;1.23;;;;;;;-146.48;100.00;30923.97;5280744;28;20028;-68
2022/01/20 11:39:01;;;;;;;13.23;1.58;;;;;;;-146.48;100.00;30818.56;5280820;28;20032;-68
2022/01/20 11:41:46;;;;;;;11.20;1.30;;;;;;;-146.48;100.00;30639.59;5280627;28;20021;-68
2022/01/20 11:44:20;;;;;;;11.95;0.98;;;;;;;-146.48;100.00;30249.81;5280788;28;20064;-69
2022/01/20 11:46:53;;;;;;;14.77;1.50;;;;;;;-146.48;100.00;30082.78;5280454;28;20035;-68
2022/01/20 11:49:35;;;;;;;15.63;1.05;;;;;;;-146.48;100.00;29909.78;5281348;28;20099;-68
2022/01/20 11:52:07;;;;;;;9.05;0.68;;;;;;;-146.48;100.00;29520.06;5280583;28;20100;-68
2022/01/20 11:54:43;;;;;;;8.35;0.70;;;;;;;-146.48;100.00;29347.09;5284947;28;20036;-68
2022/01/20 11:57:30;;;;;;;13.82;1.00;;;;;;;-146.48;100.00;29398.81;5284682;28;20031;-68
2022/01/20 12:00:16;;;;;;;15.35;1.20;;;;;;;-146.48;100.00;29633.41;5285112;28;20032;-68
2022/01/20 12:02:48;;;;;;;11.65;1.23;;;;;;;-146.48;100.00;29848.13;5284929;28;20036;-69
2022/01/20 12:05:28;;;;;;;11.93;1.50;;;;;;;-146.48;100.00;29903.81;5284563;28;20484;-68
2022/01/20 12:08:12;;;;;;;11.13;0.88;;;;;;;-146.48;100.00;29907.78;5283835;28;20028;-68
2022/01/20 12:11:00;;;;;;;10.38;0.80;;;;;;;-146.48;100.00;29897.84;5285373;28;20024;-68
2022/01/20 12:13:32;;;;;;;13.70;1.10;;;;;;;-146.48;100.00;30180.22;5285207;28;20021;-68
2022/01/20 12:16:03;;;;;;;15.43;1.17;;;;;;;-146.48;100.00;30593.84;5283663;28;20035;-67
2022/01/20 12:18:34;;;;;;;10.70;0.80;;;;;;;-146.48;100.00;30745.00;5284840;28;20051;-67
2022/01/20 12:21:08;;;;;;;13.88;1.13;;;;;;;-146.48;100.00;30806.63;5284458;28;20035;-67
2022/01/20 12:23:44;;;;;;;11.05;0.80;;;;;;;-146.48;100.00;30575.94;5284472;28;20480;-68
2022/01/20 12:26:16;;;;;;;9.70;0.93;;;;;;;-146.48;100.00;30448.66;5284332;28;20060;-67
2022/01/20 12:28:47;;;;;;;14.25;1.35;;;;;;;-146.48;100.00;30385.03;5284006;28;20056;-67
2022/01/20 12:31:20;;;;;;;12.88;1.17;;;;;;;-146.48;100.00;30267.69;5284414;28;20042;-66
2022/01/20 12:33:53;;;;;;;12.65;0.65;;;;;;;-146.48;100.00;30146.41;5284900;28;20021;-66
2022/01/20 12:36:25;;;;;;;12.48;0.77;;;;;;;-146.48;100.00;30104.66;5283617;28;20031;-67
2022/01/20 12:38:56;;;;;;;10.30;1.02;;;;;;;-146.48;100.00;29975.41;5283905;28;20024;-67
2022/01/20 12:41:27;;;;;;;11.65;0.70;;;;;;;-146.48;100.00;29915.75;5284923;28;20029;-67